Time;durP1;ratioP1;P1;durP2;ratioP2;P2;SDS_P1;SDS_P2;PMS_P1;PMS_P2;Temp;Humidity;BMP_temperature;BMP_pressure;BME280_temperature;BME280_humidity;BME280_pressure;Samples;Min_cycle;Max_cycle;Signal;HPM_P1;HPM_P2
2022/03/25 00:01:31;;;;;;;23.52;8.90;;;9.20;46.70;;;;;;5009618;28;20030;-71
2022/03/25 00:03:57;;;;;;;23.98;8.52;;;9.10;46.60;;;;;;4994704;28;20077;-71
2022/03/25 00:06:23;;;;;;;22.25;8.13;;;9.00;46.80;;;;;;4994215;28;20026;-71
2022/03/25 00:08:49;;;;;;;28.98;8.65;;;9.10;47.70;;;;;;4994299;28;20034;-71
2022/03/25 00:11:14;;;;;;;20.92;9.13;;;9.10;47.00;;;;;;4994489;28;20034;-72
2022/03/25 00:13:40;;;;;;;28.98;9.38;;;9.00;47.40;;;;;;4994108;28;20442;-72
2022/03/25 00:16:07;;;;;;;22.55;8.90;;;8.90;47.70;;;;;;4994647;28;20038;-71
2022/03/25 00:18:33;;;;;;;22.30;8.68;;;8.90;48.40;;;;;;4994034;28;20026;-71
2022/03/25 00:20:59;;;;;;;20.45;8.85;;;9.00;47.80;;;;;;5009231;28;20348;-71
2022/03/25 00:23:25;;;;;;;24.52;8.90;;;9.00;47.40;;;;;;4993953;28;20117;-71
2022/03/25 00:25:50;;;;;;;24.77;8.32;;;9.00;47.50;;;;;;4994038;28;20022;-72
2022/03/25 00:28:16;;;;;;;24.25;8.38;;;8.80;47.70;;;;;;4994225;28;20026;-71
2022/03/25 00:30:43;;;;;;;22.23;9.38;;;8.80;47.90;;;;;;4994435;28;20348;-71
2022/03/25 00:33:09;;;;;;;26.13;8.52;;;8.90;48.10;;;;;;4993894;28;20041;-71
2022/03/25 00:35:35;;;;;;;25.65;9.05;;;8.80;48.40;;;;;;4993815;28;20038;-72
2022/03/25 00:38:01;;;;;;;26.85;9.75;;;8.80;48.50;;;;;;4993945;28;20026;-71
2022/03/25 00:40:27;;;;;;;28.27;10.48;;;8.80;48.60;;;;;;4993369;28;20026;-71
2022/03/25 00:42:52;;;;;;;22.30;9.80;;;8.70;48.70;;;;;;4993175;28;20030;-70
2022/03/25 00:45:18;;;;;;;22.15;8.80;;;8.70;48.70;;;;;;4993669;28;20065;-71
2022/03/25 00:47:44;;;;;;;23.20;8.98;;;8.80;48.90;;;;;;4993726;28;20030;-71
2022/03/25 00:50:11;;;;;;;23.42;8.68;;;8.70;49.00;;;;;;4993725;28;20030;-71
2022/03/25 00:52:37;;;;;;;28.60;9.73;;;8.60;49.00;;;;;;4993531;28;20030;-71
2022/03/25 00:55:05;;;;;;;31.52;9.93;;;8.60;49.10;;;;;;4994083;28;20121;-70
2022/03/25 00:57:31;;;;;;;24.92;9.30;;;8.60;49.40;;;;;;4993733;28;20030;-71
2022/03/25 00:59:57;;;;;;;23.70;9.75;;;8.60;49.60;;;;;;4993530;28;20057;-71
2022/03/25 01:02:22;;;;;;;29.60;9.52;;;8.60;49.60;;;;;;4993705;28;20022;-72
2022/03/25 01:04:48;;;;;;;21.98;9.90;;;8.70;49.60;;;;;;4989106;28;20122;-71
2022/03/25 01:07:14;;;;;;;33.03;9.30;;;8.60;49.60;;;;;;4974189;28;20190;-71
2022/03/25 01:09:40;;;;;;;18.60;8.88;;;8.60;49.70;;;;;;4993938;28;20026;-71
2022/03/25 01:12:06;;;;;;;22.55;8.88;;;8.60;49.80;;;;;;4993474;28;20041;-72
2022/03/25 01:14:32;;;;;;;18.20;8.68;;;8.60;50.20;;;;;;4993393;28;20428;-72
2022/03/25 01:16:58;;;;;;;25.85;11.20;;;8.60;50.30;;;;;;4995234;28;20353;-71
2022/03/25 01:19:23;;;;;;;25.20;10.18;;;8.50;50.20;;;;;;4993304;28;20044;-72
2022/03/25 01:21:49;;;;;;;28.90;10.10;;;8.50;50.40;;;;;;4993573;28;20054;-72
2022/03/25 01:24:15;;;;;;;26.40;9.95;;;8.40;50.60;;;;;;4993199;28;20030;-72
2022/03/25 01:26:40;;;;;;;23.58;9.95;;;8.40;50.60;;;;;;4993029;28;20035;-71
2022/03/25 01:29:06;;;;;;;26.38;9.82;;;8.40;50.90;;;;;;4993093;28;20034;-71
2022/03/25 01:31:32;;;;;;;21.98;9.05;;;8.50;50.60;;;;;;4992964;28;20531;-71
2022/03/25 01:33:59;;;;;;;26.02;10.05;;;8.40;51.00;;;;;;4993788;28;20026;-72
2022/03/25 01:36:24;;;;;;;22.55;9.40;;;8.30;51.10;;;;;;4993063;28;20057;-71
2022/03/25 01:38:50;;;;;;;27.05;10.70;;;8.30;51.00;;;;;;4992952;28;20034;-72
2022/03/25 01:41:19;;;;;;;24.55;9.38;;;8.30;51.10;;;;;;4992743;28;20065;-73
2022/03/25 01:43:55;;;;;;;23.65;9.25;;;8.20;51.60;;;;;;4992766;28;20038;-71
2022/03/25 01:46:21;;;;;;;25.38;10.35;;;8.20;52.10;;;;;;4993088;28;20023;-71
2022/03/25 01:48:48;;;;;;;22.20;9.40;;;8.10;52.30;;;;;;4993233;28;20022;-72
2022/03/25 01:51:18;;;;;;;25.98;10.20;;;8.20;52.20;;;;;;5007972;28;20100;-72
2022/03/25 01:53:44;;;;;;;30.63;10.50;;;8.10;51.90;;;;;;4992352;28;20096;-72
2022/03/25 01:56:09;;;;;;;27.42;10.30;;;8.10;52.20;;;;;;4992623;28;20022;-73
2022/03/25 01:58:35;;;;;;;34.03;10.20;;;8.10;52.50;;;;;;4992397;28;20033;-73
2022/03/25 02:01:04;;;;;;;25.52;10.43;;;7.90;53.00;;;;;;4992811;28;20015;-71
2022/03/25 02:03:31;;;;;;;22.45;9.70;;;7.80;53.20;;;;;;4992368;28;20427;-73
2022/03/25 02:05:56;;;;;;;24.00;10.15;;;7.80;52.90;;;;;;4992288;28;20053;-71
2022/03/25 02:08:22;;;;;;;25.10;10.32;;;7.80;52.80;;;;;;4992197;28;20512;-73
2022/03/25 02:10:48;;;;;;;24.35;10.23;;;7.90;53.00;;;;;;4992618;28;20042;-73
2022/03/25 02:13:14;;;;;;;26.75;10.50;;;8.00;53.00;;;;;;5007615;28;20089;-70
2022/03/25 02:15:42;;;;;;;24.20;10.82;;;8.00;53.20;;;;;;4991529;28;20041;-72
2022/03/25 02:18:15;;;;;;;29.23;11.00;;;7.90;53.40;;;;;;4987929;28;20346;-72
2022/03/25 02:20:42;;;;;;;28.25;11.45;;;7.80;53.60;;;;;;4972444;28;20050;-72
2022/03/25 02:23:08;;;;;;;23.00;10.35;;;7.80;53.60;;;;;;4972636;28;20093;-72
2022/03/25 02:25:34;;;;;;;28.90;11.70;;;7.60;53.80;;;;;;4972713;28;20030;-72
2022/03/25 02:28:01;;;;;;;28.15;11.13;;;7.60;53.90;;;;;;4973041;28;20027;-70
2022/03/25 02:30:28;;;;;;;23.87;10.83;;;7.60;53.80;;;;;;4972371;28;20077;-72
2022/03/25 02:33:00;;;;;;;27.67;10.65;;;7.60;53.80;;;;;;4972405;28;20097;-72
2022/03/25 02:35:55;;;;;;;24.55;10.63;;;7.60;53.90;;;;;;4977642;28;20364;-72
2022/03/25 02:38:23;;;;;;;29.90;11.68;;;7.50;54.20;;;;;;4991149;28;20088;-70
2022/03/25 02:40:49;;;;;;;26.88;10.35;;;7.50;54.10;;;;;;4991760;28;20076;-70
2022/03/25 02:43:15;;;;;;;31.85;10.43;;;7.50;54.00;;;;;;4991601;28;20040;-71
2022/03/25 02:45:41;;;;;;;33.75;11.40;;;7.50;54.30;;;;;;4992208;28;20026;-71
2022/03/25 02:48:08;;;;;;;34.70;12.43;;;7.50;54.20;;;;;;4991759;28;20106;-70
2022/03/25 02:50:34;;;;;;;28.60;10.48;;;7.50;54.60;;;;;;4991517;28;20045;-72
2022/03/25 02:53:02;;;;;;;33.30;10.98;;;7.30;54.70;;;;;;4991599;28;20030;-72
2022/03/25 02:55:28;;;;;;;31.60;10.75;;;7.20;55.10;;;;;;4991571;28;20022;-71
2022/03/25 02:57:55;;;;;;;29.23;11.07;;;7.30;55.30;;;;;;4991979;28;20030;-72
2022/03/25 03:00:21;;;;;;;23.95;11.57;;;7.20;55.40;;;;;;4991408;28;20129;-71
2022/03/25 03:02:48;;;;;;;27.95;12.02;;;7.20;55.50;;;;;;4990439;28;20118;-71
2022/03/25 03:05:14;;;;;;;23.90;10.82;;;7.20;55.80;;;;;;4990922;28;20380;-70
2022/03/25 03:07:40;;;;;;;34.75;11.82;;;7.20;55.70;;;;;;4991301;28;20037;-71
2022/03/25 03:10:07;;;;;;;36.88;11.70;;;7.20;55.80;;;;;;4990755;28;20061;-71
2022/03/25 03:12:35;;;;;;;26.30;11.25;;;7.30;55.60;;;;;;4991380;28;20042;-72
2022/03/25 03:15:02;;;;;;;28.60;11.73;;;7.30;55.80;;;;;;4991589;28;20472;-70
2022/03/25 03:17:28;;;;;;;26.98;11.13;;;7.30;55.80;;;;;;4991532;28;20384;-71
2022/03/25 03:19:54;;;;;;;33.38;11.18;;;7.30;56.00;;;;;;4991549;28;20058;-72
2022/03/25 03:22:19;;;;;;;28.67;11.73;;;7.30;56.30;;;;;;4991147;28;20038;-71
2022/03/25 03:24:45;;;;;;;28.45;12.70;;;7.20;56.20;;;;;;4991635;28;20113;-70
2022/03/25 03:27:11;;;;;;;29.55;11.38;;;7.10;56.40;;;;;;4991246;28;20372;-70
2022/03/25 03:29:38;;;;;;;26.33;11.48;;;7.00;56.80;;;;;;4990256;28;20026;-71
2022/03/25 03:32:05;;;;;;;28.88;11.38;;;6.90;56.90;;;;;;4990315;28;20376;-71
2022/03/25 03:34:31;;;;;;;29.40;12.07;;;7.00;57.00;;;;;;4991276;28;20372;-70
2022/03/25 03:36:57;;;;;;;32.80;12.32;;;7.00;57.00;;;;;;4991556;28;20026;-70
2022/03/25 03:39:23;;;;;;;35.28;13.32;;;7.00;57.50;;;;;;4991262;28;20142;-70
2022/03/25 03:41:49;;;;;;;36.55;12.73;;;6.90;57.50;;;;;;4991117;28;20034;-70
2022/03/25 03:44:14;;;;;;;32.25;11.93;;;6.90;57.70;;;;;;4990941;28;20046;-71
2022/03/25 03:46:40;;;;;;;31.52;12.23;;;7.10;57.40;;;;;;4994883;28;20030;-72
2022/03/25 03:49:05;;;;;;;28.08;12.70;;;7.00;58.00;;;;;;5011197;28;20030;-70
2022/03/25 03:51:31;;;;;;;33.05;12.23;;;6.90;58.10;;;;;;5010682;28;20038;-70
2022/03/25 03:53:57;;;;;;;34.67;12.60;;;6.80;58.50;;;;;;5010632;28;20117;-70
2022/03/25 03:56:23;;;;;;;29.75;12.13;;;6.90;58.80;;;;;;5010563;28;20030;-69
2022/03/25 03:58:49;;;;;;;33.67;11.57;;;6.90;59.30;;;;;;5010572;28;20037;-70
2022/03/25 04:01:15;;;;;;;30.60;12.52;;;6.80;59.60;;;;;;5026238;28;20602;-72
2022/03/25 04:03:40;;;;;;;31.08;11.73;;;6.70;59.40;;;;;;5010952;28;20121;-71
2022/03/25 04:06:06;;;;;;;27.55;12.18;;;6.70;59.80;;;;;;5010498;28;20026;-69
2022/03/25 04:08:32;;;;;;;27.52;12.80;;;6.60;60.30;;;;;;5006177;28;20105;-70
2022/03/25 04:10:58;;;;;;;26.75;11.98;;;6.70;60.50;;;;;;4996909;28;20026;-71
2022/03/25 04:13:24;;;;;;;33.38;13.35;;;6.70;60.80;;;;;;5010483;28;20053;-70
2022/03/25 04:15:50;;;;;;;34.40;12.70;;;6.60;61.00;;;;;;5011916;28;20087;-71
2022/03/25 04:18:17;;;;;;;28.05;11.98;;;6.70;61.10;;;;;;5013967;28;20037;-70
2022/03/25 04:20:42;;;;;;;31.75;13.15;;;6.60;61.40;;;;;;5013873;28;20411;-71
2022/03/25 04:23:08;;;;;;;34.67;13.82;;;6.60;61.70;;;;;;5013590;28;20478;-70
2022/03/25 04:25:34;;;;;;;33.05;12.60;;;6.70;62.10;;;;;;5013856;28;20022;-70
2022/03/25 04:28:00;;;;;;;32.28;13.13;;;6.70;62.10;;;;;;5014326;28;20164;-70
2022/03/25 04:30:28;;;;;;;34.60;12.43;;;6.70;62.10;;;;;;5013575;28;20022;-71
2022/03/25 04:32:55;;;;;;;31.15;13.45;;;6.60;62.40;;;;;;5013663;28;20140;-70
2022/03/25 04:35:21;;;;;;;42.22;13.23;;;6.50;62.70;;;;;;5013699;28;20033;-70
2022/03/25 04:37:47;;;;;;;31.13;12.80;;;6.60;63.00;;;;;;5013660;28;20026;-71
2022/03/25 04:40:17;;;;;;;32.03;13.02;;;6.50;63.30;;;;;;5013532;28;20033;-71
2022/03/25 04:42:43;;;;;;;34.45;13.52;;;6.50;63.50;;;;;;5013803;28;20018;-71
2022/03/25 04:45:09;;;;;;;28.58;13.02;;;6.50;63.70;;;;;;5013319;28;20026;-70
2022/03/25 04:47:35;;;;;;;29.33;12.60;;;6.50;64.00;;;;;;5013293;28;20034;-71
2022/03/25 04:50:00;;;;;;;30.90;12.57;;;6.50;64.30;;;;;;5013298;28;20125;-70
2022/03/25 04:52:26;;;;;;;31.63;13.63;;;6.40;64.50;;;;;;5013379;28;20062;-70
2022/03/25 04:54:52;;;;;;;39.70;13.77;;;6.40;64.80;;;;;;5012498;28;20356;-69
2022/03/25 04:57:17;;;;;;;40.63;13.90;;;6.50;64.80;;;;;;5013260;28;20038;-69
2022/03/25 04:59:43;;;;;;;36.92;13.43;;;6.40;65.20;;;;;;5013305;28;20145;-70
2022/03/25 05:02:10;;;;;;;30.88;13.45;;;6.40;64.90;;;;;;5013101;28;20585;-70
2022/03/25 05:04:35;;;;;;;38.63;12.90;;;6.40;65.10;;;;;;5012866;28;20034;-69
2022/03/25 05:07:01;;;;;;;31.92;13.23;;;6.40;65.50;;;;;;5028784;28;20113;-70
2022/03/25 05:09:27;;;;;;;39.03;13.60;;;6.30;65.80;;;;;;5012924;28;20082;-69
2022/03/25 05:11:53;;;;;;;36.40;13.38;;;6.20;66.40;;;;;;5012982;28;20034;-70
2022/03/25 05:14:19;;;;;;;33.30;14.02;;;6.20;66.70;;;;;;5013007;28;20029;-70
2022/03/25 05:16:45;;;;;;;32.70;12.30;;;6.20;67.20;;;;;;5012991;28;20337;-71
2022/03/25 05:19:10;;;;;;;36.67;13.25;;;6.20;67.40;;;;;;5012147;28;20062;-70
2022/03/25 05:21:37;;;;;;;27.85;12.95;;;6.20;67.20;;;;;;5012561;28;20125;-70
2022/03/25 05:24:04;;;;;;;36.95;13.35;;;6.20;67.50;;;;;;5012527;28;20038;-70
2022/03/25 05:26:29;;;;;;;32.63;12.98;;;6.20;67.70;;;;;;5012653;28;20209;-71
2022/03/25 05:28:55;;;;;;;31.80;13.15;;;6.20;67.70;;;;;;5027397;28;20113;-70
2022/03/25 05:31:20;;;;;;;33.80;13.32;;;6.20;67.80;;;;;;5012662;28;20189;-70
2022/03/25 05:33:46;;;;;;;27.45;12.65;;;6.10;68.10;;;;;;5028519;28;20363;-71
2022/03/25 05:36:11;;;;;;;33.10;13.70;;;6.20;68.30;;;;;;5012385;28;20042;-70
2022/03/25 05:38:37;;;;;;;31.27;12.73;;;6.10;68.60;;;;;;5012625;28;20034;-70
2022/03/25 05:41:05;;;;;;;33.05;13.55;;;6.10;68.50;;;;;;5012542;28;20040;-70
2022/03/25 05:43:31;;;;;;;32.20;12.07;;;6.00;69.30;;;;;;5012290;28;20022;-70
2022/03/25 05:45:56;;;;;;;44.35;15.30;;;6.00;69.60;;;;;;5012822;28;20036;-70
2022/03/25 05:48:22;;;;;;;37.42;14.45;;;6.10;69.80;;;;;;5012426;28;20022;-70
2022/03/25 05:50:49;;;;;;;34.22;12.65;;;6.20;69.80;;;;;;5012196;28;20113;-70
2022/03/25 05:53:14;;;;;;;35.35;13.20;;;6.20;69.70;;;;;;5011889;28;20468;-70
2022/03/25 05:55:40;;;;;;;39.47;13.73;;;6.30;69.70;;;;;;5027642;28;20113;-71
2022/03/25 05:58:07;;;;;;;34.72;13.27;;;6.30;69.70;;;;;;5011372;28;20049;-70
2022/03/25 06:00:32;;;;;;;30.65;13.60;;;6.30;70.00;;;;;;5027343;28;20448;-72
2022/03/25 06:02:58;;;;;;;29.60;12.60;;;6.30;70.30;;;;;;5007638;28;20042;-72
2022/03/25 06:05:24;;;;;;;38.88;13.70;;;6.40;70.60;;;;;;5007686;28;20037;-74
2022/03/25 06:07:50;;;;;;;28.48;12.52;;;6.40;70.30;;;;;;4997316;28;20034;-71
2022/03/25 06:10:16;;;;;;;39.00;13.70;;;6.50;70.50;;;;;;5011754;28;20017;-70
2022/03/25 06:12:42;;;;;;;35.28;13.27;;;6.50;70.60;;;;;;5027648;28;20045;-73
2022/03/25 06:15:08;;;;;;;34.03;13.18;;;6.60;70.40;;;;;;5011736;28;20030;-73
2022/03/25 06:17:41;;;;;;;38.72;13.75;;;6.70;70.20;;;;;;5011915;28;20038;-73
2022/03/25 06:20:08;;;;;;;36.05;13.02;;;6.80;69.70;;;;;;5011280;28;20077;-72
2022/03/25 06:22:34;;;;;;;30.65;12.30;;;6.90;69.20;;;;;;5011616;28;20475;-73
2022/03/25 06:24:59;;;;;;;38.85;12.93;;;7.00;69.10;;;;;;5011772;28;20030;-73
2022/03/25 06:27:25;;;;;;;43.53;14.32;;;6.90;69.10;;;;;;5011608;28;20068;-73
2022/03/25 06:29:50;;;;;;;32.40;12.70;;;7.00;68.90;;;;;;5011696;28;20037;-72
2022/03/25 06:32:16;;;;;;;31.33;12.73;;;7.10;68.80;;;;;;5011304;28;20025;-72
2022/03/25 06:34:42;;;;;;;44.30;14.00;;;7.20;68.60;;;;;;5011464;28;20033;-72
2022/03/25 06:37:07;;;;;;;35.75;14.38;;;7.40;68.80;;;;;;5027236;28;20030;-72
2022/03/25 06:39:33;;;;;;;34.15;12.88;;;7.50;68.20;;;;;;5010612;28;20355;-73
2022/03/25 06:41:58;;;;;;;35.47;12.68;;;7.60;66.80;;;;;;5011119;28;20041;-74
2022/03/25 06:44:24;;;;;;;43.20;14.88;;;7.80;67.10;;;;;;5011089;28;20553;-74
2022/03/25 06:46:50;;;;;;;42.67;13.57;;;7.90;67.40;;;;;;5011501;28;20018;-74
2022/03/25 06:49:15;;;;;;;36.42;13.57;;;8.00;67.50;;;;;;5010964;28;20022;-73
2022/03/25 06:51:41;;;;;;;41.45;14.75;;;8.10;67.40;;;;;;5011306;28;20025;-73
2022/03/25 06:54:07;;;;;;;39.17;14.23;;;8.10;67.30;;;;;;5011055;28;20372;-73
2022/03/25 06:56:34;;;;;;;43.35;15.05;;;8.20;68.00;;;;;;5010712;28;20026;-72
2022/03/25 06:59:00;;;;;;;44.85;16.17;;;8.30;67.20;;;;;;5010995;28;20372;-72
2022/03/25 07:01:26;;;;;;;70.93;21.13;;;8.50;67.00;;;;;;5010991;28;20397;-72
2022/03/25 07:03:52;;;;;;;56.85;17.33;;;8.60;66.90;;;;;;5011378;28;20033;-73
2022/03/25 07:06:23;;;;;;;61.45;15.82;;;8.70;66.20;;;;;;5010867;28;20041;-73
2022/03/25 07:08:55;;;;;;;33.28;14.35;;;8.80;66.90;;;;;;5010973;28;20044;-73
2022/03/25 07:11:21;;;;;;;45.08;14.93;;;8.90;66.90;;;;;;5011479;28;20044;-74
2022/03/25 07:13:47;;;;;;;40.80;15.82;;;8.90;67.20;;;;;;5026323;28;20363;-74
2022/03/25 07:16:12;;;;;;;40.03;14.25;;;8.90;67.80;;;;;;5011360;28;20021;-74
2022/03/25 07:18:38;;;;;;;41.95;15.38;;;9.10;67.60;;;;;;4991132;28;20135;-71
2022/03/25 07:21:06;;;;;;;47.42;14.85;;;9.30;66.70;;;;;;4991329;28;20050;-68
2022/03/25 07:23:32;;;;;;;47.17;15.68;;;9.40;66.60;;;;;;4988397;28;20084;-71
2022/03/25 07:25:58;;;;;;;41.75;17.08;;;9.60;66.80;;;;;;4991449;28;20026;-70
2022/03/25 07:28:23;;;;;;;39.70;16.10;;;9.70;66.20;;;;;;4991432;28;20456;-68
2022/03/25 07:30:49;;;;;;;38.03;15.55;;;9.90;66.20;;;;;;4991940;28;20357;-67
2022/03/25 07:33:15;;;;;;;44.75;15.55;;;10.00;64.80;;;;;;4991320;28;20034;-67
2022/03/25 07:35:41;;;;;;;38.40;15.73;;;10.20;64.70;;;;;;4991426;28;20023;-69
2022/03/25 07:38:07;;;;;;;39.45;15.25;;;10.30;64.40;;;;;;4990980;28;20030;-69
2022/03/25 07:40:33;;;;;;;35.55;15.50;;;10.40;64.20;;;;;;4991226;28;20364;-70
2022/03/25 07:42:58;;;;;;;40.35;16.83;;;10.60;64.20;;;;;;4991841;28;20026;-70
2022/03/25 07:45:24;;;;;;;43.38;16.20;;;10.70;63.80;;;;;;4991629;28;20254;-71
2022/03/25 07:47:51;;;;;;;46.45;16.65;;;10.90;63.50;;;;;;4991393;28;20430;-70
2022/03/25 07:50:22;;;;;;;60.72;19.48;;;11.00;62.80;;;;;;4991892;28;20022;-68
2022/03/25 07:52:49;;;;;;;45.92;17.95;;;11.10;61.40;;;;;;4995003;28;20037;-71
2022/03/25 07:55:18;;;;;;;47.28;17.50;;;11.20;61.00;;;;;;4995309;28;20033;-70
2022/03/25 07:57:46;;;;;;;45.00;19.38;;;11.40;60.60;;;;;;4995380;28;20413;-69
2022/03/25 08:00:12;;;;;;;43.58;17.83;;;11.60;59.90;;;;;;4994953;28;20026;-70
2022/03/25 08:02:42;;;;;;;46.20;18.58;;;11.70;59.30;;;;;;4995202;28;20030;-69
2022/03/25 08:05:11;;;;;;;41.13;17.65;;;11.90;58.90;;;;;;4994696;28;20157;-72
2022/03/25 08:07:54;;;;;;;48.75;18.67;;;12.00;57.40;;;;;;4994174;28;20356;-68
2022/03/25 08:10:26;;;;;;;46.47;19.05;;;12.10;56.50;;;;;;4995162;28;20045;-70
2022/03/25 08:12:54;;;;;;;39.03;16.65;;;12.30;55.60;;;;;;4994360;28;20452;-71
2022/03/25 08:15:21;;;;;;;39.85;16.40;;;12.40;54.60;;;;;;4993524;28;20503;-71
2022/03/25 08:17:52;;;;;;;48.35;21.40;;;12.50;53.90;;;;;;4994478;28;20416;-71
2022/03/25 08:20:23;;;;;;;47.67;19.63;;;12.70;53.40;;;;;;4994078;28;20026;-70
2022/03/25 08:22:49;;;;;;;44.50;17.40;;;12.80;53.00;;;;;;4994015;28;20046;-71
2022/03/25 08:28:01;;;;;;;32.47;14.55;;;13.00;51.20;;;;;;4994696;28;20149;-70
2022/03/25 08:30:31;;;;;;;33.22;15.27;;;13.10;50.20;;;;;;4994096;28;20027;-72
2022/03/25 08:33:02;;;;;;;32.45;15.48;;;13.30;49.90;;;;;;4993829;28;20109;-72
2022/03/25 08:35:28;;;;;;;30.92;14.43;;;13.50;49.70;;;;;;4992850;28;20049;-72
2022/03/25 08:37:56;;;;;;;37.22;15.05;;;14.10;49.00;;;;;;4991068;28;20061;-71
2022/03/25 08:40:22;;;;;;;39.83;16.48;;;15.10;47.10;;;;;;4994323;28;20105;-69
2022/03/25 08:42:48;;;;;;;33.50;13.25;;;15.50;46.10;;;;;;4994680;28;20080;-70
2022/03/25 08:45:15;;;;;;;35.35;13.90;;;15.60;45.50;;;;;;4994126;28;20038;-72
2022/03/25 08:47:41;;;;;;;38.25;14.60;;;15.60;45.60;;;;;;4994257;28;20376;-71
2022/03/25 08:50:09;;;;;;;39.50;17.08;;;15.60;44.50;;;;;;4995652;28;20456;-70
2022/03/25 08:52:35;;;;;;;;;;;15.80;44.20;;;;;;4996337;28;20040;-70
2022/03/25 08:55:01;;;;;;;32.80;13.40;;;16.20;42.70;;;;;;4995123;28;19972;-72
2022/03/25 08:57:27;;;;;;;31.42;14.10;;;17.10;41.90;;;;;;4994242;28;20486;-71
2022/03/25 08:59:52;;;;;;;37.72;14.40;;;18.30;42.20;;;;;;4994005;28;20034;-70
2022/03/25 09:02:18;;;;;;;37.75;14.07;;;19.80;39.60;;;;;;4993303;28;20483;-72
2022/03/25 09:04:46;;;;;;;34.08;15.73;;;20.90;37.00;;;;;;4993729;28;20034;-72
2022/03/25 09:07:12;;;;;;;33.40;14.45;;;21.80;36.10;;;;;;4994856;28;20031;-72
2022/03/25 09:09:38;;;;;;;32.45;14.27;;;22.40;34.90;;;;;;4994266;28;20480;-70
2022/03/25 09:12:04;;;;;;;27.23;14.43;;;23.00;33.30;;;;;;4994242;28;20049;-70
2022/03/25 09:14:30;;;;;;;29.33;14.15;;;23.40;32.90;;;;;;4993889;28;20034;-71
2022/03/25 09:16:56;;;;;;;34.38;14.80;;;24.10;31.50;;;;;;4993872;28;20041;-72
2022/03/25 09:19:22;;;;;;;33.03;14.70;;;24.50;31.50;;;;;;4993635;28;20360;-71
2022/03/25 09:21:47;;;;;;;42.40;17.05;;;25.10;30.50;;;;;;4992626;28;20383;-72
2022/03/25 09:24:13;;;;;;;30.60;15.32;;;25.30;30.40;;;;;;4993976;28;20026;-71
2022/03/25 09:26:38;;;;;;;30.40;15.75;;;25.70;30.00;;;;;;4993851;28;20328;-69
2022/03/25 09:29:04;;;;;;;29.27;15.55;;;25.70;29.80;;;;;;4993774;28;20531;-71
2022/03/25 09:31:30;;;;;;;36.17;18.63;;;25.90;30.00;;;;;;4993723;28;20023;-71
2022/03/25 09:35:08;;;;;;;35.70;16.77;;;26.30;29.60;;;;;;4992944;28;20464;-73
2022/03/25 09:36:41;;;;;;;32.55;15.20;;;26.90;29.30;;;;;;5013064;28;20045;-72
2022/03/25 09:39:07;;;;;;;32.78;15.40;;;26.70;28.50;;;;;;5013324;28;20030;-73
2022/03/25 09:41:34;;;;;;;40.03;15.85;;;27.60;28.50;;;;;;5013793;28;20353;-71
2022/03/25 09:43:59;;;;;;;30.25;15.38;;;27.90;27.40;;;;;;5013431;28;20061;-70
2022/03/25 09:46:25;;;;;;;32.80;15.50;;;28.00;27.40;;;;;;5013249;28;20029;-71
2022/03/25 09:48:51;;;;;;;35.05;16.20;;;27.60;27.30;;;;;;5013449;28;20051;-72
2022/03/25 09:51:16;;;;;;;32.53;16.58;;;27.30;27.80;;;;;;5014053;28;20538;-71
2022/03/25 09:53:43;;;;;;;33.05;16.65;;;28.30;27.40;;;;;;5013260;28;20045;-70
2022/03/25 09:56:09;;;;;;;32.00;15.80;;;28.40;27.30;;;;;;5013306;28;20478;-69
2022/03/25 09:58:37;;;;;;;33.90;16.05;;;28.60;27.20;;;;;;5013236;28;20022;-68
2022/03/25 10:01:05;;;;;;;26.05;13.88;;;29.20;26.50;;;;;;5013934;28;20038;-70
2022/03/25 10:03:36;;;;;;;28.45;14.13;;;29.50;26.10;;;;;;5012335;28;20030;-69
2022/03/25 10:06:15;;;;;;;29.13;15.82;;;29.40;26.50;;;;;;5012439;28;20033;-71
2022/03/25 10:08:42;;;;;;;30.33;15.68;;;29.30;26.30;;;;;;5012976;28;20036;-70
2022/03/25 10:11:35;;;;;;;;;;;29.20;26.30;;;;;;5013476;28;20026;-71
2022/03/25 10:14:14;;;;;;;30.65;14.25;;;29.10;26.50;;;;;;5012298;28;19909;-71
2022/03/25 10:16:41;;;;;;;27.27;13.90;;;29.80;26.10;;;;;;5012457;28;20409;-71
2022/03/25 10:19:09;;;;;;;26.30;14.43;;;29.90;26.00;;;;;;5011699;28;20045;-71
2022/03/25 10:21:50;;;;;;;;;;;29.80;26.10;;;;;;5012853;28;20050;-72
2022/03/25 10:24:18;;;;;;;31.35;17.17;;;29.30;26.40;;;;;;5012461;28;19917;-71
2022/03/25 10:26:45;;;;;;;28.27;18.10;;;29.80;27.00;;;;;;5012691;28;20038;-72
2022/03/25 10:29:24;;;;;;;34.90;18.02;;;30.50;26.80;;;;;;5012438;28;20541;-70
2022/03/25 10:32:07;;;;;;;33.40;18.45;;;30.00;26.70;;;;;;5011915;28;20064;-69
2022/03/25 10:34:37;;;;;;;33.92;18.40;;;30.40;26.80;;;;;;5011819;28;20034;-69
2022/03/25 10:37:05;;;;;;;37.65;21.13;;;30.90;26.30;;;;;;5011633;28;20026;-69
2022/03/25 10:39:32;;;;;;;40.05;24.95;;;30.80;26.20;;;;;;5011856;28;20037;-71
2022/03/25 10:42:03;;;;;;;50.13;27.25;;;31.00;27.30;;;;;;5012291;28;20041;-71
2022/03/25 10:44:43;;;;;;;35.70;23.23;;;31.00;27.80;;;;;;5012019;28;20041;-70
2022/03/25 10:47:14;;;;;;;38.85;22.70;;;30.90;27.30;;;;;;5011128;28;20037;-70
2022/03/25 10:49:46;;;;;;;34.50;21.67;;;30.90;27.10;;;;;;5010790;28;20471;-72
2022/03/25 10:52:22;;;;;;;40.83;20.65;;;31.00;26.70;;;;;;5011828;28;20084;-70
2022/03/25 10:54:48;;;;;;;36.35;21.38;;;30.90;26.70;;;;;;5011451;28;20037;-71
2022/03/25 10:57:16;;;;;;;36.88;21.35;;;30.90;26.90;;;;;;5010897;28;20033;-71
2022/03/25 10:59:42;;;;;;;35.78;22.17;;;30.30;26.80;;;;;;5011102;28;20022;-70
2022/03/25 11:02:08;;;;;;;36.85;21.77;;;29.30;27.00;;;;;;5011547;28;20568;-73
2022/03/25 11:04:35;;;;;;;39.05;21.73;;;29.30;27.40;;;;;;5011012;28;20034;-71
2022/03/25 11:07:03;;;;;;;38.92;21.98;;;29.00;27.10;;;;;;5011369;28;20026;-67
2022/03/25 11:09:30;;;;;;;44.00;23.33;;;28.20;28.00;;;;;;5009937;28;20038;-69
2022/03/25 11:11:58;;;;;;;43.63;24.52;;;29.10;28.30;;;;;;5010914;28;20057;-71
2022/03/25 11:14:24;;;;;;;;;;;30.10;28.00;;;;;;5010589;28;20439;-70
2022/03/25 11:16:59;;;;;;;49.90;30.70;;;30.20;28.00;;;;;;5006296;28;19941;-71
2022/03/25 11:19:25;;;;;;;45.45;26.33;;;30.50;28.00;;;;;;4992712;28;20026;-72
2022/03/25 11:21:54;;;;;;;40.97;23.60;;;30.50;27.90;;;;;;5010907;28;20108;-68
2022/03/25 11:24:22;;;;;;;42.25;24.50;;;30.40;27.70;;;;;;5010659;28;20225;-73
2022/03/25 11:26:50;;;;;;;42.25;24.15;;;30.40;27.80;;;;;;5012610;28;20029;-69
2022/03/25 11:29:20;;;;;;;77.80;36.15;;;30.40;27.80;;;;;;5015351;28;20030;-70
2022/03/25 11:32:10;;;;;;;39.08;23.30;;;30.10;27.90;;;;;;5015228;28;20026;-69
2022/03/25 11:34:47;;;;;;;37.15;23.65;;;30.00;28.00;;;;;;5014896;28;20037;-70
2022/03/25 11:37:28;;;;;;;42.23;23.90;;;29.60;28.10;;;;;;5015108;28;20041;-68
2022/03/25 11:40:13;;;;;;;39.03;23.02;;;29.00;28.50;;;;;;5015066;28;20065;-72
2022/03/25 11:42:49;;;;;;;51.72;24.17;;;28.60;29.00;;;;;;5015037;28;20606;-68
2022/03/25 11:45:21;;;;;;;43.15;24.40;;;28.00;29.20;;;;;;5014455;28;20463;-69
2022/03/25 11:48:07;;;;;;;40.95;21.15;;;27.30;29.60;;;;;;5014572;28;20037;-69
2022/03/25 11:50:37;;;;;;;46.15;22.75;;;26.60;30.30;;;;;;5014330;28;20041;-70
2022/03/25 11:53:12;;;;;;;42.33;22.02;;;25.70;31.10;;;;;;5014292;28;20029;-73
2022/03/25 11:55:56;;;;;;;43.53;23.88;;;25.20;31.70;;;;;;5014413;28;20030;-71
2022/03/25 11:58:22;;;;;;;44.25;22.95;;;24.90;31.70;;;;;;5014324;28;20029;-70
2022/03/25 12:00:51;;;;;;;38.85;21.60;;;24.50;32.00;;;;;;5014681;28;20057;-71
2022/03/25 12:03:18;;;;;;;40.28;21.48;;;23.90;32.60;;;;;;5014106;28;20061;-67
2022/03/25 12:06:01;;;;;;;36.58;20.42;;;23.80;33.70;;;;;;5014362;28;20064;-68
2022/03/25 12:08:37;;;;;;;43.03;23.80;;;23.80;32.60;;;;;;5014141;28;20038;-67
2022/03/25 12:11:07;;;;;;;40.42;22.17;;;23.50;33.30;;;;;;5014207;28;20169;-66
2022/03/25 12:13:52;;;;;;;39.47;20.98;;;23.50;34.50;;;;;;5014543;28;20053;-67
2022/03/25 12:16:45;;;;;;;40.90;21.80;;;23.30;33.00;;;;;;5013996;28;20466;-68
2022/03/25 12:19:26;;;;;;;38.92;22.05;;;23.00;33.40;;;;;;5014647;28;20022;-69
2022/03/25 12:22:02;;;;;;;43.08;21.40;;;22.80;33.80;;;;;;5013822;28;20496;-69
2022/03/25 12:24:30;;;;;;;42.78;21.40;;;22.60;34.10;;;;;;5014111;28;20092;-69
2022/03/25 12:26:58;;;;;;;;;;;22.60;34.20;;;;;;5014395;28;20136;-70
2022/03/25 12:29:32;;;;;;;50.30;22.92;;;22.50;34.30;;;;;;5013978;28;19913;-70
2022/03/25 12:32:02;;;;;;;39.95;22.15;;;22.40;35.00;;;;;;5014112;28;20030;-69
2022/03/25 12:34:46;;;;;;;40.20;21.08;;;22.40;34.80;;;;;;5013772;28;20034;-69
2022/03/25 12:37:28;;;;;;;37.95;20.95;;;22.40;35.10;;;;;;5012622;28;20042;-69
2022/03/25 12:39:54;;;;;;;39.05;20.42;;;22.20;35.10;;;;;;5013656;28;20392;-69
2022/03/25 12:42:20;;;;;;;45.10;22.83;;;21.70;35.90;;;;;;5013592;28;20033;-69